Time;durP1;ratioP1;P1;durP2;ratioP2;P2;SDS_P1;SDS_P2;PMS_P1;PMS_P2;Temp;Humidity;BMP_temperature;BMP_pressure;BME280_temperature;BME280_humidity;BME280_pressure;Samples;Min_cycle;Max_cycle;Signal;HPM_P1;HPM_P2
2023/03/09 00:00:30;;;;;;;3.75;2.20;;;;;;;11.32;66.09;96649.97;5134496;27;20020;-77
2023/03/09 00:02:56;;;;;;;3.63;2.15;;;;;;;11.29;65.32;96644.84;5134518;27;20106;-76
2023/03/09 00:05:21;;;;;;;7.47;2.63;;;;;;;11.19;66.26;96643.91;5134450;27;20023;-78
2023/03/09 00:07:47;;;;;;;3.75;2.50;;;;;;;11.17;67.00;96658.34;5151821;27;20027;-77
2023/03/09 00:10:14;;;;;;;4.82;2.30;;;;;;;11.07;67.17;96650.22;5151544;27;20023;-77
2023/03/09 00:12:40;;;;;;;5.65;2.17;;;;;;;10.93;67.82;96638.88;5117142;27;20528;-77
2023/03/09 00:15:06;;;;;;;3.92;2.38;;;;;;;11.01;67.49;96649.84;5151635;27;20064;-77
2023/03/09 00:17:32;;;;;;;4.05;2.22;;;;;;;10.91;67.26;96641.69;5116757;27;20122;-77
2023/03/09 00:20:14;;;;;;;9.98;3.85;;;;;;;10.96;66.90;96655.53;5151322;27;20172;-78
2023/03/09 00:22:41;;;;;;;5.18;3.03;;;;;;;10.95;66.73;96632.41;5153664;27;20433;-77
2023/03/09 00:25:07;;;;;;;4.30;2.50;;;;;;;10.97;67.33;96648.38;5151257;27;20405;-77
2023/03/09 00:27:33;;;;;;;5.78;3.20;;;;;;;10.85;67.46;96640.34;5116850;27;20109;-77
2023/03/09 00:29:58;;;;;;;14.65;5.93;;;;;;;10.80;68.21;96636.28;5151142;27;20110;-77
2023/03/09 00:32:24;;;;;;;19.83;6.82;;;;;;;10.77;68.98;96633.84;5116582;27;20068;-77
2023/03/09 00:34:49;;;;;;;18.90;6.07;;;;;;;10.78;69.57;96647.13;5134098;27;20027;-77
2023/03/09 00:37:15;;;;;;;10.57;4.85;;;;;;;10.76;69.11;96634.84;5150919;27;20031;-78
2023/03/09 00:39:40;;;;;;;15.40;4.97;;;;;;;10.73;70.16;96625.25;5150793;27;20050;-78
2023/03/09 00:42:06;;;;;;;11.63;4.50;;;;;;;10.68;71.06;96634.56;5116498;27;20027;-78
2023/03/09 00:44:31;;;;;;;9.25;4.93;;;;;;;10.58;71.36;96625.56;5116279;27;20084;-78
2023/03/09 00:46:57;;;;;;;8.88;4.15;;;;;;;10.47;72.53;96612.16;5150789;27;20019;-78
2023/03/09 00:49:22;;;;;;;10.15;4.60;;;;;;;10.45;72.44;96603.41;5150526;27;20064;-78
2023/03/09 00:51:48;;;;;;;7.03;4.18;;;;;;;10.51;71.81;96608.28;5150647;27;20087;-76
2023/03/09 00:54:14;;;;;;;8.05;4.43;;;;;;;10.44;72.34;96604.34;5133375;27;20058;-77
2023/03/09 00:56:40;;;;;;;8.82;4.63;;;;;;;10.31;73.60;96601.78;5133313;27;20022;-77
2023/03/09 00:59:06;;;;;;;5.60;3.00;;;;;;;10.07;75.34;96575.06;5116035;27;20508;-77
2023/03/09 01:01:31;;;;;;;3.25;1.85;;;;;;;9.92;75.94;96588.72;5141573;27;20056;-77
2023/03/09 01:03:57;;;;;;;3.78;2.20;;;;;;;9.72;77.90;96591.03;5116176;27;20023;-78
2023/03/09 01:06:23;;;;;;;5.47;3.00;;;;;;;9.63;80.55;96609.56;5132693;27;20019;-77
2023/03/09 01:08:49;;;;;;;5.93;3.30;;;;;;;9.50;80.41;96598.09;5095187;28;20043;-77
2023/03/09 01:11:16;;;;;;;4.18;2.58;;;;;;;9.36;80.36;96590.22;5095519;28;20534;-76
2023/03/09 01:13:42;;;;;;;4.38;2.58;;;;;;;9.39;81.25;96606.84;5095355;28;20228;-76
2023/03/09 01:16:07;;;;;;;5.03;2.65;;;;;;;9.30;82.68;96585.31;5112396;28;20023;-76
2023/03/09 01:18:33;;;;;;;3.25;2.40;;;;;;;9.33;83.58;96615.31;5095323;28;20096;-77
2023/03/09 01:20:59;;;;;;;3.95;2.45;;;;;;;9.24;82.39;96603.47;5095391;28;20165;-77
2023/03/09 01:23:24;;;;;;;3.70;2.55;;;;;;;9.22;83.30;96609.91;5081219;28;20059;-78
2023/03/09 01:25:50;;;;;;;4.25;2.75;;;;;;;9.28;84.46;96604.13;5074883;28;20036;-76
2023/03/09 01:28:15;;;;;;;6.60;3.30;;;;;;;9.20;84.04;96596.66;5074863;28;20487;-77
2023/03/09 01:30:41;;;;;;;5.57;2.45;;;;;;;9.24;84.28;96603.47;5074685;28;20027;-77
2023/03/09 01:33:06;;;;;;;4.15;2.50;;;;;;;9.21;85.18;96602.84;5075134;28;20407;-77
2023/03/09 01:35:32;;;;;;;5.50;3.00;;;;;;;9.18;86.22;96597.72;5091582;28;20024;-78
2023/03/09 01:37:57;;;;;;;5.78;3.45;;;;;;;9.10;86.28;96598.28;5091607;28;20106;-77
2023/03/09 01:40:25;;;;;;;6.68;2.90;;;;;;;9.12;85.47;96593.69;5074663;28;20019;-77
2023/03/09 01:42:59;;;;;;;6.78;3.05;;;;;;;9.11;85.54;96596.47;5074470;28;20028;-77
2023/03/09 01:45:24;;;;;;;5.85;2.15;;;;;;;9.20;83.26;96602.00;5091524;28;20020;-78
2023/03/09 01:47:51;;;;;;;3.38;2.40;;;;;;;9.23;84.03;96576.91;5092510;28;20073;-77
2023/03/09 01:50:19;;;;;;;6.68;2.72;;;;;;;9.21;84.92;96571.69;5074409;28;20067;-77
2023/03/09 01:52:46;;;;;;;6.50;2.85;;;;;;;9.27;85.42;96581.91;5074376;28;20028;-79
2023/03/09 01:55:14;;;;;;;4.72;3.03;;;;;;;9.30;83.46;96559.50;5074354;28;20537;-77
2023/03/09 01:57:50;;;;;;;4.00;2.33;;;;;;;9.37;82.75;96541.22;5091218;28;20028;-77
2023/03/09 02:00:18;;;;;;;3.72;2.30;;;;;;;9.46;82.03;96561.91;5074326;28;20415;-77
2023/03/09 02:02:48;;;;;;;5.20;2.90;;;;;;;9.46;82.36;96556.56;5074115;28;20031;-77
2023/03/09 02:05:25;;;;;;;6.07;2.83;;;;;;;9.36;83.70;96569.72;5074563;28;20410;-78
2023/03/09 02:07:52;;;;;;;5.63;2.55;;;;;;;9.42;83.53;96574.59;5091393;28;20373;-77
2023/03/09 02:10:34;;;;;;;5.50;2.63;;;;;;;9.30;84.82;96572.84;5074180;28;20101;-77
2023/03/09 02:13:20;;;;;;;5.03;2.60;;;;;;;9.32;86.27;96589.56;5074148;28;20085;-78
2023/03/09 02:15:45;;;;;;;4.25;2.75;;;;;;;9.25;85.83;96583.84;5074196;28;20563;-77
2023/03/09 02:18:11;;;;;;;6.72;2.63;;;;;;;9.18;87.27;96576.38;5090983;28;20111;-78
2023/03/09 02:21:22;;;;;;;5.78;2.38;;;;;;;9.15;87.87;96588.13;5073667;28;20502;-76
2023/03/09 02:24:00;;;;;;;4.20;2.42;;;;;;;9.21;85.99;96570.84;5090610;28;20137;-76
2023/03/09 02:26:32;;;;;;;8.20;2.30;;;;;;;9.41;83.46;96570.25;5073942;28;20077;-78
2023/03/09 02:28:57;;;;;;;4.75;2.20;;;;;;;9.49;83.76;96578.53;5090577;28;20020;-78
2023/03/09 02:31:23;;;;;;;3.72;2.40;;;;;;;9.40;84.41;96576.53;5074062;28;20031;-77
2023/03/09 02:33:48;;;;;;;6.65;4.35;;;;;;;9.24;86.43;96582.13;5090652;28;20023;-77
2023/03/09 02:36:14;;;;;;;6.80;3.50;;;;;;;9.07;88.46;96589.66;5090618;28;20073;-78
2023/03/09 02:38:39;;;;;;;7.57;2.90;;;;;;;8.93;89.28;96587.97;5090594;28;20473;-77
2023/03/09 02:41:10;;;;;;;4.72;1.73;;;;;;;8.87;87.68;96592.88;5090746;28;20032;-77
2023/03/09 02:43:55;;;;;;;4.82;2.20;;;;;;;8.99;86.39;96584.00;5090646;28;20106;-80
2023/03/09 02:46:20;;;;;;;5.50;2.75;;;;;;;8.90;89.81;96584.66;5074190;28;20392;-78
2023/03/09 02:49:01;;;;;;;7.10;3.10;;;;;;;8.83;89.96;96584.22;5090947;28;20020;-77
2023/03/09 02:51:27;;;;;;;4.97;2.50;;;;;;;8.77;90.54;96598.00;5075176;28;20444;-77
2023/03/09 02:53:52;;;;;;;4.88;2.85;;;;;;;8.76;91.98;96614.09;5091723;28;20035;-76
2023/03/09 02:56:18;;;;;;;9.18;3.00;;;;;;;8.57;93.68;96596.72;5090822;28;20024;-77
2023/03/09 02:58:43;;;;;;;5.43;3.05;;;;;;;8.51;93.97;96601.63;5073355;28;20028;-76
2023/03/09 03:01:09;;;;;;;8.00;3.60;;;;;;;8.38;95.84;96600.75;5073048;28;20537;-77
2023/03/09 03:03:35;;;;;;;7.65;3.10;;;;;;;8.28;96.51;96608.50;5073465;28;20047;-77
2023/03/09 03:06:06;;;;;;;4.63;2.72;;;;;;;8.11;97.39;96588.34;5073457;28;20074;-78
2023/03/09 03:09:00;;;;;;;5.30;3.17;;;;;;;8.26;96.74;96605.06;5073756;28;20024;-77
2023/03/09 03:11:25;;;;;;;6.70;2.90;;;;;;;8.22;97.39;96606.22;5073392;28;20039;-77
2023/03/09 03:13:54;;;;;;;6.25;2.50;;;;;;;8.18;97.64;96583.44;5090374;28;20407;-78
2023/03/09 03:16:23;;;;;;;4.00;2.00;;;;;;;8.14;97.68;96572.16;5090178;28;20035;-77
2023/03/09 03:18:49;;;;;;;6.18;2.17;;;;;;;8.27;96.76;96576.63;5073740;28;20032;-77
2023/03/09 03:21:14;;;;;;;3.05;1.90;;;;;;;8.29;95.19;96574.75;5090133;28;20039;-77
2023/03/09 03:23:40;;;;;;;3.45;1.88;;;;;;;8.38;94.89;96572.31;5073344;28;20075;-77
2023/03/09 03:26:07;;;;;;;5.13;1.90;;;;;;;8.49;93.34;96574.25;5090263;28;20056;-77
2023/03/09 03:28:33;;;;;;;3.13;1.80;;;;;;;8.57;92.90;96577.22;5073115;28;20024;-76
2023/03/09 03:30:59;;;;;;;5.10;2.10;;;;;;;8.61;91.81;96581.38;5074997;28;20451;-78
2023/03/09 03:33:24;;;;;;;5.97;2.67;;;;;;;8.72;92.41;96600.13;5077112;28;20024;-77
2023/03/09 03:35:50;;;;;;;8.88;2.60;;;;;;;8.70;92.32;96596.72;5077009;28;20054;-77
2023/03/09 03:38:15;;;;;;;5.60;3.00;;;;;;;8.60;93.40;96585.00;5077014;28;20032;-77
2023/03/09 03:40:41;;;;;;;4.90;2.70;;;;;;;8.66;94.28;96600.56;5076952;28;20028;-78
2023/03/09 03:43:06;;;;;;;4.95;2.38;;;;;;;8.72;93.28;96597.47;5076810;28;20026;-77
2023/03/09 03:45:32;;;;;;;4.60;2.67;;;;;;;8.66;94.39;96608.56;5093721;28;20484;-78
2023/03/09 03:47:57;;;;;;;7.65;3.20;;;;;;;8.66;93.88;96612.09;5093785;28;20020;-77
2023/03/09 03:50:23;;;;;;;8.45;3.10;;;;;;;8.58;94.50;96613.56;5076648;28;20384;-77
2023/03/09 03:52:48;;;;;;;5.80;2.90;;;;;;;8.50;95.19;96599.91;5076830;28;20063;-77
2023/03/09 03:55:14;;;;;;;6.30;3.63;;;;;;;8.54;96.19;96620.94;5076949;28;20032;-77
2023/03/09 03:57:39;;;;;;;10.35;3.50;;;;;;;8.50;95.71;96605.22;5076435;28;20028;-76
2023/03/09 04:00:11;;;;;;;10.63;3.33;;;;;;;8.49;94.05;96584.91;5093614;28;20047;-77
2023/03/09 04:02:38;;;;;;;18.23;6.90;;;;;;;8.56;93.70;96594.16;5093491;28;20437;-78
2023/03/09 04:05:04;;;;;;;92.80;33.67;;;;;;;8.46;94.90;96571.78;5076482;28;20038;-77
2023/03/09 04:07:30;;;;;;;59.72;24.63;;;;;;;8.48;94.45;96586.72;5076386;28;20038;-77
2023/03/09 04:09:55;;;;;;;49.22;19.33;;;;;;;8.47;93.81;96573.47;5076289;28;20119;-77
2023/03/09 04:12:21;;;;;;;48.10;18.40;;;;;;;8.40;95.50;96564.22;5076193;28;20031;-76
2023/03/09 04:14:46;;;;;;;44.90;17.77;;;;;;;8.39;96.37;96560.69;5093409;28;20068;-76
2023/03/09 04:17:12;;;;;;;96.70;26.67;;;;;;;8.34;96.98;96556.63;5076266;28;20031;-77
2023/03/09 04:19:37;;;;;;;128.60;34.67;;;;;;;8.32;97.23;96564.72;5076098;28;20476;-77
2023/03/09 04:22:03;;;;;;;17.15;6.03;;;;;;;8.29;98.07;96564.94;5080594;27;20049;-78
2023/03/09 04:24:29;;;;;;;12.52;4.57;;;;;;;8.16;97.74;96558.72;5133955;27;20023;-76
2023/03/09 04:26:55;;;;;;;9.00;3.75;;;;;;;8.20;96.76;96568.22;5116867;27;20383;-77
2023/03/09 04:29:20;;;;;;;10.18;5.03;;;;;;;8.19;97.50;96564.69;5117724;27;20030;-77
2023/03/09 04:31:46;;;;;;;15.38;4.97;;;;;;;8.22;97.52;96568.09;5099753;27;20023;-78
2023/03/09 04:34:11;;;;;;;9.02;5.05;;;;;;;8.18;97.12;96567.47;5102885;27;20039;-79
2023/03/09 04:36:37;;;;;;;14.77;6.00;;;;;;;8.19;97.26;96570.00;5151414;27;20037;-73
2023/03/09 04:39:04;;;;;;;14.73;5.82;;;;;;;8.17;98.34;96571.94;5134235;27;20038;-76
2023/03/09 04:41:30;;;;;;;16.50;6.90;;;;;;;8.22;97.96;96555.63;5151798;27;20023;-78
2023/03/09 04:43:56;;;;;;;14.52;6.43;;;;;;;8.28;97.40;96575.69;5116085;27;20088;-76
2023/03/09 04:46:22;;;;;;;17.42;6.18;;;;;;;8.22;97.75;96562.75;5116879;27;20023;-77
2023/03/09 04:48:47;;;;;;;25.58;8.50;;;;;;;8.25;97.63;96557.22;5137299;27;20414;-77
2023/03/09 04:51:13;;;;;;;21.20;8.02;;;;;;;8.28;97.49;96557.91;5136731;27;20031;-77
2023/03/09 04:53:38;;;;;;;24.70;9.82;;;;;;;8.22;98.27;96547.63;5117817;27;20038;-76
2023/03/09 04:56:04;;;;;;;25.88;10.70;;;;;;;8.27;98.32;96545.53;5134511;27;20535;-78
2023/03/09 04:58:30;;;;;;;9.25;4.95;;;;;;;8.35;97.69;96558.34;5117310;27;20087;-77
2023/03/09 05:00:55;;;;;;;16.13;4.65;;;;;;;8.46;96.06;96547.81;5135188;27;20525;-78
2023/03/09 05:03:21;;;;;;;13.85;6.65;;;;;;;8.54;95.84;96548.97;5136172;27;20019;-77
2023/03/09 05:05:46;;;;;;;9.27;3.88;;;;;;;8.71;93.48;96539.78;5168253;27;20471;-77
2023/03/09 05:08:12;;;;;;;13.02;5.32;;;;;;;8.89;93.37;96533.13;5134361;27;20023;-78
2023/03/09 05:10:38;;;;;;;20.60;8.55;;;;;;;8.93;94.00;96545.28;5118719;27;20027;-79
2023/03/09 05:13:03;;;;;;;25.67;9.07;;;;;;;8.94;93.88;96544.34;5145590;27;20023;-78
2023/03/09 05:15:29;;;;;;;11.52;5.15;;;;;;;8.96;94.35;96542.41;5124710;27;20083;-77
2023/03/09 05:17:54;;;;;;;21.92;5.88;;;;;;;8.97;93.42;96543.25;5123594;27;20023;-76
2023/03/09 05:20:20;;;;;;;9.93;4.30;;;;;;;9.00;94.43;96559.91;5163773;27;20464;-75
2023/03/09 05:22:45;;;;;;;25.48;7.00;;;;;;;9.14;93.78;96549.06;5146511;27;20058;-74
2023/03/09 05:25:11;;;;;;;7.63;3.58;;;;;;;10.04;89.43;96567.28;5137772;27;20038;-73
2023/03/09 05:27:36;;;;;;;13.93;4.40;;;;;;;11.57;79.38;96568.50;5116408;27;20038;-77
2023/03/09 05:30:02;;;;;;;9.95;3.92;;;;;;;11.73;73.53;96546.72;5119457;27;20023;-75
2023/03/09 05:32:28;;;;;;;11.45;3.83;;;;;;;12.52;69.67;96561.47;5114287;27;20034;-74
2023/03/09 05:34:53;;;;;;;12.25;3.80;;;;;;;13.45;63.60;96553.19;5131683;27;20027;-76
2023/03/09 05:37:19;;;;;;;13.85;4.97;;;;;;;13.94;59.78;96527.25;5130780;27;20050;-74
2023/03/09 05:39:45;;;;;;;38.70;19.35;;;;;;;14.57;58.87;96542.84;5114448;27;20034;-77
2023/03/09 05:42:10;;;;;;;15.50;7.47;;;;;;;15.65;54.78;96535.94;5132501;27;20035;-74
2023/03/09 05:44:36;;;;;;;7.60;3.72;;;;;;;16.15;51.44;96528.19;5120134;27;20091;-77
2023/03/09 05:47:01;;;;;;;52.40;25.17;;;;;;;16.58;50.88;96529.28;5112191;27;20091;-77
2023/03/09 05:49:30;;;;;;;71.25;15.45;;;;;;;17.58;49.46;96537.69;5117368;27;20029;-79
2023/03/09 05:51:57;;;;;;;30.75;8.85;;;;;;;18.07;47.34;96514.31;5097517;27;20022;-78
2023/03/09 05:54:23;;;;;;;121.63;61.97;;;;;;;18.62;45.75;96523.53;5129624;27;20023;-77
2023/03/09 05:56:49;;;;;;;33.88;14.57;;;;;;;18.53;46.00;96519.13;5097348;27;20031;-79
2023/03/09 05:59:15;;;;;;;18.83;6.32;;;;;;;19.22;44.47;96523.97;5113791;27;20050;-78
2023/03/09 06:01:40;;;;;;;22.40;7.82;;;;;;;19.51;43.36;96492.69;5100114;27;20023;-78
2023/03/09 06:04:06;;;;;;;61.85;18.10;;;;;;;20.01;42.32;96498.53;5132227;27;20037;-77
2023/03/09 06:06:32;;;;;;;14.30;7.18;;;;;;;20.58;41.30;96501.72;5113902;27;20023;-79
2023/03/09 06:08:57;;;;;;;17.58;5.22;;;;;;;20.68;40.20;96486.00;5148577;27;20019;-79
2023/03/09 06:11:23;;;;;;;16.00;5.45;;;;;;;21.16;39.58;96502.94;5148282;27;20026;-79
2023/03/09 06:13:53;;;;;;;26.55;10.15;;;;;;;22.15;38.46;96520.41;5131294;27;20027;-78
2023/03/09 06:16:18;;;;;;;21.88;6.32;;;;;;;22.44;37.56;96503.13;5113779;27;20030;-77
2023/03/09 06:18:44;;;;;;;14.85;5.35;;;;;;;22.98;36.91;96519.81;5110632;27;20611;-78
2023/03/09 06:21:10;;;;;;;10.48;5.30;;;;;;;22.97;36.18;96477.22;5111063;27;20079;-78
2023/03/09 06:23:35;;;;;;;19.02;6.75;;;;;;;22.43;37.00;96479.63;5100883;27;20040;-79
2023/03/09 06:26:06;;;;;;;23.75;8.00;;;;;;;21.94;38.04;96487.69;5106266;27;20026;-77
2023/03/09 06:28:32;;;;;;;11.07;5.95;;;;;;;22.20;37.40;96475.41;5121416;27;20015;-77
2023/03/09 06:30:58;;;;;;;10.70;4.38;;;;;;;22.18;37.08;96461.16;5096593;28;20023;-77
2023/03/09 06:33:23;;;;;;;11.82;4.18;;;;;;;21.82;37.24;96451.06;5117918;27;20088;-77
2023/03/09 06:35:49;;;;;;;32.47;8.88;;;;;;;21.69;38.49;96463.69;5118651;27;20474;-77
2023/03/09 06:38:14;;;;;;;17.58;7.15;;;;;;;22.09;38.11;96468.59;5147738;27;20083;-78
2023/03/09 06:40:40;;;;;;;19.50;6.63;;;;;;;21.55;38.32;96449.91;5096518;27;20059;-78
2023/03/09 06:43:06;;;;;;;30.40;12.02;;;;;;;21.40;39.06;96450.97;5097483;28;20027;-75
2023/03/09 06:45:32;;;;;;;9.98;4.15;;;;;;;21.05;38.29;96442.47;5126141;28;20027;-78
2023/03/09 06:47:57;;;;;;;28.95;9.98;;;;;;;20.53;39.95;96428.91;5096537;28;20031;-77
2023/03/09 06:50:24;;;;;;;17.30;7.88;;;;;;;20.51;38.89;96424.72;5096289;28;20031;-79
2023/03/09 06:52:50;;;;;;;17.50;7.43;;;;;;;20.90;39.18;96448.94;5113391;28;20439;-78
2023/03/09 06:55:16;;;;;;;20.75;11.27;;;;;;;20.93;38.20;96440.41;5113330;28;20033;-79
2023/03/09 06:57:41;;;;;;;14.88;8.90;;;;;;;20.30;38.88;96438.94;5113409;28;20027;-77
2023/03/09 07:00:09;;;;;;;2.80;1.45;;;;;;;19.83;38.84;96409.25;5109683;28;20478;-78
2023/03/09 07:02:34;;;;;;;32.90;17.83;;;;;;;19.61;39.22;96431.78;5113660;28;20026;-78
2023/03/09 07:05:00;;;;;;;33.75;18.20;;;;;;;18.93;40.47;96418.81;5131725;27;20031;-79
2023/03/09 07:07:25;;;;;;;41.83;21.70;;;;;;;18.92;41.33;96427.97;5151712;27;20110;-76
2023/03/09 07:09:51;;;;;;;10.55;5.05;;;;;;;18.43;41.26;96408.22;5117316;27;20543;-78
2023/03/09 07:12:16;;;;;;;28.85;16.70;;;;;;;17.72;42.83;96397.25;5134228;27;20027;-78
2023/03/09 07:14:42;;;;;;;17.65;10.25;;;;;;;17.93;42.72;96421.13;5133471;27;20058;-78
2023/03/09 07:17:14;;;;;;;12.80;5.75;;;;;;;18.20;42.59;96452.41;5116206;27;20411;-81
2023/03/09 07:19:40;;;;;;;20.75;10.45;;;;;;;18.11;42.38;96446.16;5106793;27;20483;-78
2023/03/09 07:22:07;;;;;;;4.82;2.38;;;;;;;18.12;42.36;96441.59;5135706;27;20110;-78
2023/03/09 07:24:36;;;;;;;5.82;1.77;;;;;;;18.22;42.51;96444.97;5133945;27;20043;-78
2023/03/09 07:27:02;;;;;;;2.10;1.90;;;;;;;18.33;41.75;96455.47;5117247;27;20118;-78
2023/03/09 07:29:27;;;;;;;3.10;1.80;;;;;;;18.37;42.06;96443.25;5116909;27;20023;-79
2023/03/09 07:31:53;;;;;;;7.53;3.20;;;;;;;18.28;42.15;96447.84;5133713;27;20035;-79
2023/03/09 07:34:18;;;;;;;8.45;2.15;;;;;;;18.45;41.50;96432.44;5128322;27;20088;-78
2023/03/09 07:36:44;;;;;;;6.13;2.35;;;;;;;18.44;41.73;96419.91;5125660;27;20077;-77
2023/03/09 07:39:10;;;;;;;4.90;1.75;;;;;;;18.55;41.93;96430.41;5116900;27;20031;-77
2023/03/09 07:41:35;;;;;;;4.55;1.92;;;;;;;18.81;41.45;96449.19;5116937;27;20026;-77
2023/03/09 07:44:01;;;;;;;3.35;1.77;;;;;;;18.97;40.89;96437.44;5117110;27;20455;-77
2023/03/09 07:46:27;;;;;;;6.97;3.28;;;;;;;19.51;40.56;96458.28;5116796;27;20035;-79
2023/03/09 07:48:52;;;;;;;23.48;3.22;;;;;;;19.46;39.72;96439.84;5101061;27;20076;-77
2023/03/09 07:51:18;;;;;;;3.08;1.55;;;;;;;19.18;40.57;96454.84;5111802;27;20470;-76
2023/03/09 07:53:44;;;;;;;3.03;1.65;;;;;;;18.86;41.13;96463.03;5134002;27;20112;-78
2023/03/09 07:56:10;;;;;;;3.30;1.80;;;;;;;18.65;41.15;96432.94;5116835;27;20034;-78
2023/03/09 07:58:37;;;;;;;3.67;2.17;;;;;;;18.39;42.25;96461.03;5099443;27;20027;-77
2023/03/09 08:01:03;;;;;;;2.85;1.83;;;;;;;18.39;42.08;96454.78;5116409;27;20398;-78
2023/03/09 08:03:29;;;;;;;9.07;3.53;;;;;;;18.91;41.96;96477.78;5133390;27;20046;-79
2023/03/09 08:05:55;;;;;;;13.63;2.90;;;;;;;19.28;40.77;96468.19;5116295;27;20406;-77
2023/03/09 08:08:27;;;;;;;3.28;1.50;;;;;;;19.08;40.42;96456.03;5150665;27;20046;-78
2023/03/09 08:10:53;;;;;;;7.95;3.67;;;;;;;19.42;40.58;96475.63;5125726;27;20026;-79
2023/03/09 08:13:21;;;;;;;4.95;2.13;;;;;;;18.79;41.30;96462.91;5103560;27;20035;-78
2023/03/09 08:15:47;;;;;;;3.20;1.90;;;;;;;18.46;42.02;96446.84;5107540;27;20023;-78
2023/03/09 08:18:13;;;;;;;12.98;7.70;;;;;;;19.14;41.49;96461.63;5118829;27;20155;-79
2023/03/09 08:20:39;;;;;;;4.18;2.10;;;;;;;19.83;40.07;96478.97;5126173;27;20118;-78
2023/03/09 08:23:06;;;;;;;4.95;3.00;;;;;;;20.75;38.60;96481.53;5116046;27;20512;-78
2023/03/09 08:25:32;;;;;;;31.77;3.75;;;;;;;22.40;36.52;96506.44;5098699;27;20118;-79
2023/03/09 08:27:58;;;;;;;7.90;2.28;;;;;;;23.77;34.34;96508.63;5099046;27;20171;-77
2023/03/09 08:30:24;;;;;;;2.30;1.20;;;;;;;24.82;32.26;96509.84;5099115;27;20031;-77
2023/03/09 08:32:51;;;;;;;3.13;1.75;;;;;;;24.12;32.65;96475.59;5149782;27;20475;-77
2023/03/09 08:35:18;;;;;;;4.47;3.08;;;;;;;24.69;32.90;96490.66;5133098;27;20031;-79
2023/03/09 08:37:43;;;;;;;6.63;1.70;;;;;;;25.63;31.41;96469.34;5115571;27;20454;-78
2023/03/09 08:40:09;;;;;;;5.43;1.83;;;;;;;26.83;30.59;96505.09;5139360;27;20039;-79
2023/03/09 08:42:35;;;;;;;4.60;1.67;;;;;;;27.82;29.24;96489.44;5121490;27;20426;-79
2023/03/09 08:45:01;;;;;;;15.63;3.17;;;;;;;27.40;29.25;96441.66;5098580;27;20102;-78
2023/03/09 08:47:27;;;;;;;5.68;2.38;;;;;;;28.12;28.62;96458.44;5098618;27;20023;-77
2023/03/09 08:49:52;;;;;;;5.30;2.00;;;;;;;26.67;29.71;96399.41;5115460;27;20045;-78
2023/03/09 08:52:18;;;;;;;3.75;1.98;;;;;;;25.16;30.92;96410.28;5115474;27;20015;-78
2023/03/09 08:54:44;;;;;;;3.00;1.55;;;;;;;24.20;32.49;96415.28;5115312;27;20411;-79
2023/03/09 08:57:09;;;;;;;5.07;2.00;;;;;;;23.71;32.98;96395.56;5132797;27;20019;-77
2023/03/09 08:59:35;;;;;;;2.58;1.80;;;;;;;22.68;34.37;96390.97;5118385;27;20113;-78
2023/03/09 09:02:00;;;;;;;9.40;1.75;;;;;;;22.43;35.04;96407.94;5098265;27;20058;-79
2023/03/09 09:04:26;;;;;;;3.78;1.23;;;;;;;21.75;35.64;96384.81;5098246;27;20034;-78
2023/03/09 09:06:52;;;;;;;1.92;1.30;;;;;;;21.49;36.00;96387.22;5114885;27;20422;-78
2023/03/09 09:09:17;;;;;;;5.07;1.55;;;;;;;21.38;36.74;96388.56;5115477;27;20025;-78
2023/03/09 09:11:43;;;;;;;4.30;2.55;;;;;;;21.22;36.68;96377.91;5104199;27;20030;-78
2023/03/09 09:14:08;;;;;;;12.52;2.92;;;;;;;21.15;37.38;96385.13;5105520;27;20030;-77
2023/03/09 09:16:34;;;;;;;13.82;2.55;;;;;;;21.05;37.45;96381.81;5115015;27;20106;-79
2023/03/09 09:18:59;;;;;;;2.33;1.60;;;;;;;20.01;38.39;96355.50;5097692;27;20050;-80
2023/03/09 09:21:27;;;;;;;2.78;1.70;;;;;;;20.38;38.61;96381.00;5129027;27;20418;-78
2023/03/09 09:23:54;;;;;;;3.80;1.75;;;;;;;20.32;38.54;96370.88;5113376;27;20050;-77
2023/03/09 09:26:20;;;;;;;3.45;1.98;;;;;;;20.68;38.40;96360.16;5097948;27;20039;-80
2023/03/09 09:28:46;;;;;;;1.50;1.15;;;;;;;20.92;37.95;96373.47;5109296;27;20024;-79
2023/03/09 09:31:16;;;;;;;1.83;1.08;;;;;;;21.23;37.32;96371.41;5124604;27;20567;-79
2023/03/09 09:33:42;;;;;;;1.75;1.20;;;;;;;21.42;37.28;96375.41;5117966;27;20030;-77
2023/03/09 09:36:12;;;;;;;4.68;2.05;;;;;;;21.90;36.77;96382.09;5123322;27;20019;-76
2023/03/09 09:38:39;;;;;;;2.17;1.52;;;;;;;22.50;36.20;96376.97;5148903;27;20027;-78
2023/03/09 09:41:17;;;;;;;2.85;1.90;;;;;;;22.99;35.26;96376.09;5123190;27;20031;-76
2023/03/09 09:43:43;;;;;;;2.40;1.38;;;;;;;23.14;34.45;96371.34;5114399;27;20011;-78
2023/03/09 09:46:11;;;;;;;13.38;3.10;;;;;;;24.01;33.82;96388.72;5097479;27;20031;-77
2023/03/09 09:48:39;;;;;;;8.38;3.05;;;;;;;24.57;35.05;96393.88;5101546;27;20406;-80
2023/03/09 09:51:10;;;;;;;2.08;1.50;;;;;;;25.13;32.52;96395.09;5106556;27;20118;-76
2023/03/09 09:53:58;;;;;;;2.50;1.60;;;;;;;26.42;34.19;96438.88;5133050;27;20478;-78
2023/03/09 09:56:40;;;;;;;1.92;1.30;;;;;;;28.24;32.42;96440.91;5155705;27;20046;-79
2023/03/09 09:59:06;;;;;;;;;;;;;;;29.62;29.30;96433.19;5131951;27;20397;-81
2023/03/09 10:01:49;;;;;;;1.55;1.27;;;;;;;30.63;26.55;96419.59;5099748;27;20009;-79
2023/03/09 10:04:21;;;;;;;2.33;1.38;;;;;;;30.58;28.42;96430.53;5116134;27;20027;-80
2023/03/09 10:06:48;;;;;;;1.13;0.95;;;;;;;30.76;26.58;96398.25;5100697;27;20424;-80
2023/03/09 10:09:27;;;;;;;195.60;41.03;;;;;;;31.12;26.93;96392.25;5126632;27;20757;-79
2023/03/09 10:11:56;;;;;;;8.77;6.07;;;;;;;31.37;26.36;96370.53;5137946;27;20084;-79
2023/03/09 10:14:30;;;;;;;1.92;1.73;;;;;;;31.66;27.94;96388.66;5109494;27;20023;-79
2023/03/09 10:17:12;;;;;;;1.40;0.98;;;;;;;31.59;25.22;96356.78;5139728;27;20045;-78
2023/03/09 10:19:40;;;;;;;4.65;1.20;;;;;;;32.53;25.11;96368.41;5124342;27;20482;-79
2023/03/09 10:22:27;;;;;;;2.47;1.20;;;;;;;31.97;24.48;96333.72;5100409;27;20023;-77
2023/03/09 10:24:54;;;;;;;17.48;11.73;;;;;;;31.93;25.32;96335.34;5134533;27;20027;-80
2023/03/09 10:27:49;;;;;;;3.13;1.77;;;;;;;31.95;24.28;96317.38;5101506;27;20031;-79
2023/03/09 10:30:39;;;;;;;5.53;2.03;;;;;;;30.78;26.10;96294.72;5132195;27;20028;-79
2023/03/09 10:33:07;;;;;;;5.40;2.15;;;;;;;30.68;26.18;96289.03;5127793;27;20087;-79
2023/03/09 10:35:43;;;;;;;7.28;1.83;;;;;;;29.79;26.98;96256.78;5132218;27;20488;-79
2023/03/09 10:38:20;;;;;;;2.20;1.48;;;;;;;29.18;28.39;96272.06;5120373;27;20031;-79
2023/03/09 10:40:53;;;;;;;2.70;1.40;;;;;;;30.64;26.65;96288.69;5103358;28;20514;-78
2023/03/09 10:43:22;;;;;;;2.17;1.30;;;;;;;28.96;27.99;96251.72;5139164;27;20023;-78
2023/03/09 10:45:48;;;;;;;5.75;2.55;;;;;;;27.67;28.51;96225.13;5148931;27;20027;-77
2023/03/09 10:48:24;;;;;;;7.13;1.90;;;;;;;27.95;28.69;96232.72;5137420;28;20034;-79
2023/03/09 10:51:00;;;;;;;6.30;1.80;;;;;;;27.79;29.01;96228.75;5122038;28;20030;-78
2023/03/09 10:53:36;;;;;;;5.93;1.95;;;;;;;25.83;30.14;96186.00;5104160;28;20047;-77
2023/03/09 10:56:20;;;;;;;3.17;1.63;;;;;;;24.99;31.80;96196.41;5121466;27;20030;-78
2023/03/09 10:58:47;;;;;;;6.70;2.03;;;;;;;26.48;30.45;96226.78;5131569;28;20106;-78
2023/03/09 11:01:12;;;;;;;2.90;2.00;;;;;;;28.05;29.36;96252.28;5114100;28;20532;-78
2023/03/09 11:03:41;;;;;;;4.45;1.42;;;;;;;28.30;28.42;96232.81;5122912;28;20023;-78
2023/03/09 11:06:27;;;;;;;2.38;1.70;;;;;;;29.08;27.62;96238.78;5118256;28;20130;-79
2023/03/09 11:09:14;;;;;;;8.35;2.67;;;;;;;28.13;28.49;96201.56;5125394;28;20111;-79
2023/03/09 11:11:41;;;;;;;16.35;2.78;;;;;;;28.55;27.91;96210.56;5083131;28;20027;-79
2023/03/09 11:14:29;;;;;;;5.38;1.23;;;;;;;28.80;27.91;96224.94;5131495;27;20031;-78
2023/03/09 11:16:57;;;;;;;4.07;1.50;;;;;;;29.46;27.20;96229.97;5116382;28;20559;-79
2023/03/09 11:19:23;;;;;;;22.25;13.15;;;;;;;30.65;26.29;96242.59;5122346;28;20031;-78
2023/03/09 11:22:02;;;;;;;10.02;2.15;;;;;;;30.13;26.51;96211.63;5113558;28;20490;-78
2023/03/09 11:24:38;;;;;;;8.40;5.72;;;;;;;31.35;25.44;96226.19;5124702;28;20043;-78
2023/03/09 11:27:12;;;;;;;4.45;2.00;;;;;;;31.80;24.88;96228.69;5129444;27;20027;-79
2023/03/09 11:29:43;;;;;;;3.13;1.77;;;;;;;32.20;24.62;96222.75;5117266;28;20409;-78
2023/03/09 11:32:10;;;;;;;9.18;2.22;;;;;;;32.05;24.99;96217.06;5126644;28;20031;-79
2023/03/09 11:34:39;;;;;;;5.57;2.70;;;;;;;31.06;25.85;96200.69;5127812;28;20519;-78
2023/03/09 11:37:41;;;;;;;9.15;6.03;;;;;;;32.36;24.93;96219.00;5116608;28;20492;-78